Thomas Bridge, Virginia
Current Conditions -  °F | °C
As of 11:35 AM on Friday 31 Oct 2014 (Local Time) from KMKJ Reporting Station
Overcast Overcast  
Wind Chill: 46°   Ceiling: 2800
Heat Index: 46°   Visibility: 10mi
Dew Point: 37°   Wind: 0mph
Humidity: 71%   Direction: NA
Pressure: 29.94"   Gusts: NA
Location:  36.8339°N, 81.5195°W
Report Text: KMKJ 311535Z AUTO 00000KT 10SM OVC028 08/03 A2994 RMK AO2 T00790030
Loading
Personal Weather Stations






























Interactive Weather Map
Tropical Storm Tracking
New forecast layout! Learn more

10-Day Weather Forecast

Advertisements
Track Severe Weather on mobile